sensor_id;sensor_type;location;lat;lon;timestamp;temperature;humidity
3705;DHT22;1868;48.918;9.438;2022-11-13T00:02:08;3.50;97.40
3705;DHT22;1868;48.918;9.438;2022-11-13T00:04:55;3.50;97.40
3705;DHT22;1868;48.918;9.438;2022-11-13T00:07:41;3.50;97.40
3705;DHT22;1868;48.918;9.438;2022-11-13T00:10:29;3.50;97.40
3705;DHT22;1868;48.918;9.438;2022-11-13T00:13:16;3.50;97.40
3705;DHT22;1868;48.918;9.438;2022-11-13T00:16:04;3.50;97.40
3705;DHT22;1868;48.918;9.438;2022-11-13T00:18:52;3.40;97.40
3705;DHT22;1868;48.918;9.438;2022-11-13T00:21:39;3.40;97.40
3705;DHT22;1868;48.918;9.438;2022-11-13T00:24:26;3.40;97.40
3705;DHT22;1868;48.918;9.438;2022-11-13T00:27:14;3.40;97.40
3705;DHT22;1868;48.918;9.438;2022-11-13T00:30:00;3.40;97.40
3705;DHT22;1868;48.918;9.438;2022-11-13T00:32:47;3.40;97.40
3705;DHT22;1868;48.918;9.438;2022-11-13T00:35:34;3.40;97.40
3705;DHT22;1868;48.918;9.438;2022-11-13T00:38:20;3.40;97.40
3705;DHT22;1868;48.918;9.438;2022-11-13T00:41:07;3.40;97.40
3705;DHT22;1868;48.918;9.438;2022-11-13T00:43:55;3.40;97.40
3705;DHT22;1868;48.918;9.438;2022-11-13T00:46:42;3.40;97.40
3705;DHT22;1868;48.918;9.438;2022-11-13T00:49:28;3.40;97.40
3705;DHT22;1868;48.918;9.438;2022-11-13T00:52:15;3.40;97.40
3705;DHT22;1868;48.918;9.438;2022-11-13T00:55:02;3.40;97.40
3705;DHT22;1868;48.918;9.438;2022-11-13T00:57:49;3.40;97.40
3705;DHT22;1868;48.918;9.438;2022-11-13T01:00:37;3.40;97.40
3705;DHT22;1868;48.918;9.438;2022-11-13T01:03:24;3.30;97.40
3705;DHT22;1868;48.918;9.438;2022-11-13T01:06:15;3.40;97.40
3705;DHT22;1868;48.918;9.438;2022-11-13T01:09:03;3.40;97.40
3705;DHT22;1868;48.918;9.438;2022-11-13T01:11:50;3.30;97.40
3705;DHT22;1868;48.918;9.438;2022-11-13T01:14:37;3.30;97.40
3705;DHT22;1868;48.918;9.438;2022-11-13T01:17:25;3.30;97.40
3705;DHT22;1868;48.918;9.438;2022-11-13T01:20:12;3.20;97.40
3705;DHT22;1868;48.918;9.438;2022-11-13T01:22:58;3.10;97.40
3705;DHT22;1868;48.918;9.438;2022-11-13T01:25:45;3.00;97.40
3705;DHT22;1868;48.918;9.438;2022-11-13T01:28:32;3.00;97.40
3705;DHT22;1868;48.918;9.438;2022-11-13T01:31:21;3.00;97.40
3705;DHT22;1868;48.918;9.438;2022-11-13T01:34:10;2.90;97.40
3705;DHT22;1868;48.918;9.438;2022-11-13T01:36:57;2.80;97.40
3705;DHT22;1868;48.918;9.438;2022-11-13T01:39:43;2.80;97.40
3705;DHT22;1868;48.918;9.438;2022-11-13T01:42:31;2.80;97.40
3705;DHT22;1868;48.918;9.438;2022-11-13T01:49:02;2.70;97.40
3705;DHT22;1868;48.918;9.438;2022-11-13T01:52:00;2.60;97.40
3705;DHT22;1868;48.918;9.438;2022-11-13T01:54:51;2.60;97.40
3705;DHT22;1868;48.918;9.438;2022-11-13T01:57:40;2.60;97.40
3705;DHT22;1868;48.918;9.438;2022-11-13T02:00:26;2.50;97.40
3705;DHT22;1868;48.918;9.438;2022-11-13T02:03:13;2.50;97.40
3705;DHT22;1868;48.918;9.438;2022-11-13T02:06:00;2.50;97.40
3705;DHT22;1868;48.918;9.438;2022-11-13T02:08:48;2.50;97.40
3705;DHT22;1868;48.918;9.438;2022-11-13T02:11:36;2.40;97.40
3705;DHT22;1868;48.918;9.438;2022-11-13T02:14:25;2.40;97.40
3705;DHT22;1868;48.918;9.438;2022-11-13T02:17:15;2.40;97.40
3705;DHT22;1868;48.918;9.438;2022-11-13T02:20:06;2.40;97.40
3705;DHT22;1868;48.918;9.438;2022-11-13T02:23:01;2.30;97.40
3705;DHT22;1868;48.918;9.438;2022-11-13T02:25:54;2.20;97.40
3705;DHT22;1868;48.918;9.438;2022-11-13T02:28:41;2.20;97.40
3705;DHT22;1868;48.918;9.438;2022-11-13T02:31:27;2.20;97.40
3705;DHT22;1868;48.918;9.438;2022-11-13T02:34:14;2.10;97.40
3705;DHT22;1868;48.918;9.438;2022-11-13T02:37:00;2.10;97.40
3705;DHT22;1868;48.918;9.438;2022-11-13T02:39:47;2.10;97.40
3705;DHT22;1868;48.918;9.438;2022-11-13T02:42:35;2.00;97.40
3705;DHT22;1868;48.918;9.438;2022-11-13T02:45:22;2.00;97.40
3705;DHT22;1868;48.918;9.438;2022-11-13T02:48:09;1.90;97.40
3705;DHT22;1868;48.918;9.438;2022-11-13T02:50:55;1.90;97.40
3705;DHT22;1868;48.918;9.438;2022-11-13T02:53:42;1.80;97.40
3705;DHT22;1868;48.918;9.438;2022-11-13T02:56:29;1.80;97.40
3705;DHT22;1868;48.918;9.438;2022-11-13T02:59:16;1.80;97.40
3705;DHT22;1868;48.918;9.438;2022-11-13T03:02:03;1.70;97.40
3705;DHT22;1868;48.918;9.438;2022-11-13T03:04:50;1.70;97.40
3705;DHT22;1868;48.918;9.438;2022-11-13T03:07:56;1.70;97.40
3705;DHT22;1868;48.918;9.438;2022-11-13T03:10:43;1.60;97.40
3705;DHT22;1868;48.918;9.438;2022-11-13T03:13:30;1.60;97.40
3705;DHT22;1868;48.918;9.438;2022-11-13T03:16:18;1.60;97.40
3705;DHT22;1868;48.918;9.438;2022-11-13T03:19:05;1.50;97.40
3705;DHT22;1868;48.918;9.438;2022-11-13T03:21:52;1.50;97.40
3705;DHT22;1868;48.918;9.438;2022-11-13T03:24:39;1.50;97.40
3705;DHT22;1868;48.918;9.438;2022-11-13T03:27:25;1.50;97.40
3705;DHT22;1868;48.918;9.438;2022-11-13T03:30:13;1.50;97.40
3705;DHT22;1868;48.918;9.438;2022-11-13T03:33:01;1.50;97.40
3705;DHT22;1868;48.918;9.438;2022-11-13T03:35:47;1.50;97.40
3705;DHT22;1868;48.918;9.438;2022-11-13T03:38:34;1.50;97.40
3705;DHT22;1868;48.918;9.438;2022-11-13T03:41:22;1.50;97.40
3705;DHT22;1868;48.918;9.438;2022-11-13T03:44:09;1.50;97.40
3705;DHT22;1868;48.918;9.438;2022-11-13T03:46:55;1.50;97.40
3705;DHT22;1868;48.918;9.438;2022-11-13T03:49:43;1.50;97.40
3705;DHT22;1868;48.918;9.438;2022-11-13T03:52:30;1.40;97.40
3705;DHT22;1868;48.918;9.438;2022-11-13T03:55:16;1.40;97.40
3705;DHT22;1868;48.918;9.438;2022-11-13T03:58:04;1.40;97.40
3705;DHT22;1868;48.918;9.438;2022-11-13T04:00:52;1.40;97.40
3705;DHT22;1868;48.918;9.438;2022-11-13T04:03:40;1.30;97.40
3705;DHT22;1868;48.918;9.438;2022-11-13T04:06:28;1.30;97.40
3705;DHT22;1868;48.918;9.438;2022-11-13T04:09:14;1.30;97.40
3705;DHT22;1868;48.918;9.438;2022-11-13T04:12:01;1.30;97.40
3705;DHT22;1868;48.918;9.438;2022-11-13T04:14:48;1.30;97.40
3705;DHT22;1868;48.918;9.438;2022-11-13T04:17:35;1.30;97.40
3705;DHT22;1868;48.918;9.438;2022-11-13T04:20:21;1.20;97.40
3705;DHT22;1868;48.918;9.438;2022-11-13T04:23:10;1.20;97.40
3705;DHT22;1868;48.918;9.438;2022-11-13T04:25:58;1.20;97.40
3705;DHT22;1868;48.918;9.438;2022-11-13T04:28:45;1.20;97.40
3705;DHT22;1868;48.918;9.438;2022-11-13T04:31:32;1.20;97.40
3705;DHT22;1868;48.918;9.438;2022-11-13T04:34:19;1.10;97.40
3705;DHT22;1868;48.918;9.438;2022-11-13T04:37:05;1.10;97.40
3705;DHT22;1868;48.918;9.438;2022-11-13T04:39:53;1.10;97.40
3705;DHT22;1868;48.918;9.438;2022-11-13T04:42:40;1.10;97.40
3705;DHT22;1868;48.918;9.438;2022-11-13T04:45:35;1.10;97.40
3705;DHT22;1868;48.918;9.438;2022-11-13T04:48:22;1.10;97.40
3705;DHT22;1868;48.918;9.438;2022-11-13T04:51:10;1.10;97.40
3705;DHT22;1868;48.918;9.438;2022-11-13T04:53:57;1.10;97.40
3705;DHT22;1868;48.918;9.438;2022-11-13T04:56:45;1.00;97.40
3705;DHT22;1868;48.918;9.438;2022-11-13T04:59:31;1.00;97.40
3705;DHT22;1868;48.918;9.438;2022-11-13T05:02:18;1.00;97.40
3705;DHT22;1868;48.918;9.438;2022-11-13T05:05:06;1.00;97.40
3705;DHT22;1868;48.918;9.438;2022-11-13T05:07:53;1.00;97.40
3705;DHT22;1868;48.918;9.438;2022-11-13T05:10:40;1.00;97.40
3705;DHT22;1868;48.918;9.438;2022-11-13T05:13:31;1.00;97.40
3705;DHT22;1868;48.918;9.438;2022-11-13T05:16:18;1.00;97.40
3705;DHT22;1868;48.918;9.438;2022-11-13T05:19:05;1.00;97.40
3705;DHT22;1868;48.918;9.438;2022-11-13T05:21:52;0.90;97.40
3705;DHT22;1868;48.918;9.438;2022-11-13T05:24:39;0.90;97.40
3705;DHT22;1868;48.918;9.438;2022-11-13T05:27:26;0.90;97.40
3705;DHT22;1868;48.918;9.438;2022-11-13T05:30:15;0.90;97.40
3705;DHT22;1868;48.918;9.438;2022-11-13T05:33:02;0.80;97.40
3705;DHT22;1868;48.918;9.438;2022-11-13T05:35:48;0.90;97.40
3705;DHT22;1868;48.918;9.438;2022-11-13T05:38:36;0.90;97.40
3705;DHT22;1868;48.918;9.438;2022-11-13T05:41:24;0.80;97.40
3705;DHT22;1868;48.918;9.438;2022-11-13T05:44:11;0.80;97.40
3705;DHT22;1868;48.918;9.438;2022-11-13T05:46:59;0.90;97.40
3705;DHT22;1868;48.918;9.438;2022-11-13T05:49:46;0.80;97.40
3705;DHT22;1868;48.918;9.438;2022-11-13T05:52:32;0.80;97.40
3705;DHT22;1868;48.918;9.438;2022-11-13T05:55:19;0.80;97.40
3705;DHT22;1868;48.918;9.438;2022-11-13T05:58:08;0.80;97.40
3705;DHT22;1868;48.918;9.438;2022-11-13T06:01:04;0.80;97.40
3705;DHT22;1868;48.918;9.438;2022-11-13T06:03:54;0.80;97.40
3705;DHT22;1868;48.918;9.438;2022-11-13T06:06:41;0.80;97.40
3705;DHT22;1868;48.918;9.438;2022-11-13T06:09:28;0.90;97.40
3705;DHT22;1868;48.918;9.438;2022-11-13T06:12:15;0.90;97.40
3705;DHT22;1868;48.918;9.438;2022-11-13T06:15:02;0.90;97.40
3705;DHT22;1868;48.918;9.438;2022-11-13T06:17:49;0.90;97.40
3705;DHT22;1868;48.918;9.438;2022-11-13T06:20:37;0.90;97.40
3705;DHT22;1868;48.918;9.438;2022-11-13T06:23:24;0.90;97.40
3705;DHT22;1868;48.918;9.438;2022-11-13T06:26:12;0.90;97.40
3705;DHT22;1868;48.918;9.438;2022-11-13T06:29:02;0.90;97.40
3705;DHT22;1868;48.918;9.438;2022-11-13T06:31:49;0.90;97.40
3705;DHT22;1868;48.918;9.438;2022-11-13T06:34:36;1.00;97.40
3705;DHT22;1868;48.918;9.438;2022-11-13T06:37:24;1.10;97.40
3705;DHT22;1868;48.918;9.438;2022-11-13T06:40:15;1.10;97.40
3705;DHT22;1868;48.918;9.438;2022-11-13T06:43:02;1.10;97.40
3705;DHT22;1868;48.918;9.438;2022-11-13T06:45:49;1.20;97.40
3705;DHT22;1868;48.918;9.438;2022-11-13T06:48:36;1.20;97.40
3705;DHT22;1868;48.918;9.438;2022-11-13T06:51:25;1.30;97.40
3705;DHT22;1868;48.918;9.438;2022-11-13T06:54:14;1.30;97.40
3705;DHT22;1868;48.918;9.438;2022-11-13T06:57:01;1.40;97.40
3705;DHT22;1868;48.918;9.438;2022-11-13T06:59:48;1.50;97.40
3705;DHT22;1868;48.918;9.438;2022-11-13T07:02:35;1.60;97.40
3705;DHT22;1868;48.918;9.438;2022-11-13T07:05:21;1.50;97.40
3705;DHT22;1868;48.918;9.438;2022-11-13T07:08:08;1.40;97.40
3705;DHT22;1868;48.918;9.438;2022-11-13T07:10:57;1.40;97.40
3705;DHT22;1868;48.918;9.438;2022-11-13T07:13:44;1.40;97.40
3705;DHT22;1868;48.918;9.438;2022-11-13T07:16:31;1.40;97.40
3705;DHT22;1868;48.918;9.438;2022-11-13T07:19:38;1.40;97.40
3705;DHT22;1868;48.918;9.438;2022-11-13T07:22:27;1.30;97.40
3705;DHT22;1868;48.918;9.438;2022-11-13T07:25:13;1.40;97.40
3705;DHT22;1868;48.918;9.438;2022-11-13T07:28:02;1.40;97.40
3705;DHT22;1868;48.918;9.438;2022-11-13T07:30:49;1.50;97.40
3705;DHT22;1868;48.918;9.438;2022-11-13T07:33:36;1.60;97.40
3705;DHT22;1868;48.918;9.438;2022-11-13T07:36:23;1.70;97.40
3705;DHT22;1868;48.918;9.438;2022-11-13T07:39:10;1.80;97.40
3705;DHT22;1868;48.918;9.438;2022-11-13T07:41:56;1.90;97.40
3705;DHT22;1868;48.918;9.438;2022-11-13T07:44:44;1.80;97.40
3705;DHT22;1868;48.918;9.438;2022-11-13T07:47:39;1.80;97.40
3705;DHT22;1868;48.918;9.438;2022-11-13T07:50:27;1.90;97.40
3705;DHT22;1868;48.918;9.438;2022-11-13T07:53:16;2.00;97.40
3705;DHT22;1868;48.918;9.438;2022-11-13T07:56:03;2.10;97.40
3705;DHT22;1868;48.918;9.438;2022-11-13T07:58:50;2.20;97.40
3705;DHT22;1868;48.918;9.438;2022-11-13T08:01:39;2.40;97.40
3705;DHT22;1868;48.918;9.438;2022-11-13T08:04:26;2.60;97.40
3705;DHT22;1868;48.918;9.438;2022-11-13T08:07:12;2.70;97.40
3705;DHT22;1868;48.918;9.438;2022-11-13T08:09:59;2.90;97.40
3705;DHT22;1868;48.918;9.438;2022-11-13T08:12:46;3.20;97.40
3705;DHT22;1868;48.918;9.438;2022-11-13T08:15:34;3.60;97.40
3705;DHT22;1868;48.918;9.438;2022-11-13T08:18:22;4.10;97.40
3705;DHT22;1868;48.918;9.438;2022-11-13T08:21:08;4.50;97.40
3705;DHT22;1868;48.918;9.438;2022-11-13T08:23:59;4.50;97.40
3705;DHT22;1868;48.918;9.438;2022-11-13T08:26:46;4.50;97.40
3705;DHT22;1868;48.918;9.438;2022-11-13T08:29:32;4.40;97.40
3705;DHT22;1868;48.918;9.438;2022-11-13T08:32:21;4.40;97.40
3705;DHT22;1868;48.918;9.438;2022-11-13T08:35:09;4.30;97.40
3705;DHT22;1868;48.918;9.438;2022-11-13T08:38:03;4.50;97.40
3705;DHT22;1868;48.918;9.438;2022-11-13T08:40:51;4.50;97.40
3705;DHT22;1868;48.918;9.438;2022-11-13T08:43:41;4.80;97.40
3705;DHT22;1868;48.918;9.438;2022-11-13T08:46:28;4.90;97.40
3705;DHT22;1868;48.918;9.438;2022-11-13T08:49:15;5.10;97.40
3705;DHT22;1868;48.918;9.438;2022-11-13T08:52:03;5.10;97.40
3705;DHT22;1868;48.918;9.438;2022-11-13T08:54:50;5.10;97.40
3705;DHT22;1868;48.918;9.438;2022-11-13T08:57:37;5.10;97.40
3705;DHT22;1868;48.918;9.438;2022-11-13T09:00:24;5.20;97.40
3705;DHT22;1868;48.918;9.438;2022-11-13T09:03:11;5.30;97.40
3705;DHT22;1868;48.918;9.438;2022-11-13T09:05:58;5.40;97.40
3705;DHT22;1868;48.918;9.438;2022-11-13T09:08:46;5.40;97.40
3705;DHT22;1868;48.918;9.438;2022-11-13T09:11:33;5.30;97.40
3705;DHT22;1868;48.918;9.438;2022-11-13T09:14:19;5.30;97.40
3705;DHT22;1868;48.918;9.438;2022-11-13T09:17:06;5.40;97.40
3705;DHT22;1868;48.918;9.438;2022-11-13T09:19:53;5.70;97.40
3705;DHT22;1868;48.918;9.438;2022-11-13T09:22:45;5.90;97.40
3705;DHT22;1868;48.918;9.438;2022-11-13T09:25:34;5.90;97.40
3705;DHT22;1868;48.918;9.438;2022-11-13T09:28:22;5.90;97.40
3705;DHT22;1868;48.918;9.438;2022-11-13T09:31:10;5.90;97.40
3705;DHT22;1868;48.918;9.438;2022-11-13T09:33:56;6.10;97.40
3705;DHT22;1868;48.918;9.438;2022-11-13T09:36:43;6.00;97.40
3705;DHT22;1868;48.918;9.438;2022-11-13T09:39:30;6.00;97.40
3705;DHT22;1868;48.918;9.438;2022-11-13T09:42:21;6.00;97.40
3705;DHT22;1868;48.918;9.438;2022-11-13T09:45:12;6.00;97.40
3705;DHT22;1868;48.918;9.438;2022-11-13T09:48:10;6.10;97.40
3705;DHT22;1868;48.918;9.438;2022-11-13T09:51:13;6.60;97.40
3705;DHT22;1868;48.918;9.438;2022-11-13T09:54:04;7.20;97.40
3705;DHT22;1868;48.918;9.438;2022-11-13T09:56:56;7.50;97.40
3705;DHT22;1868;48.918;9.438;2022-11-13T09:59:52;8.20;97.40
3705;DHT22;1868;48.918;9.438;2022-11-13T10:02:52;8.70;97.40
3705;DHT22;1868;48.918;9.438;2022-11-13T10:06:03;8.70;97.40
3705;DHT22;1868;48.918;9.438;2022-11-13T10:08:57;8.80;97.40
3705;DHT22;1868;48.918;9.438;2022-11-13T10:11:51;9.00;97.40
3705;DHT22;1868;48.918;9.438;2022-11-13T10:14:42;9.30;97.40
3705;DHT22;1868;48.918;9.438;2022-11-13T10:17:35;9.90;97.40
3705;DHT22;1868;48.918;9.438;2022-11-13T10:20:28;9.80;97.40
3705;DHT22;1868;48.918;9.438;2022-11-13T10:23:20;9.70;97.40
3705;DHT22;1868;48.918;9.438;2022-11-13T10:26:13;9.50;97.40
3705;DHT22;1868;48.918;9.438;2022-11-13T10:29:07;9.30;97.40
3705;DHT22;1868;48.918;9.438;2022-11-13T10:31:56;9.80;97.40
3705;DHT22;1868;48.918;9.438;2022-11-13T10:34:50;10.60;97.40
3705;DHT22;1868;48.918;9.438;2022-11-13T10:37:51;11.20;97.40
3705;DHT22;1868;48.918;9.438;2022-11-13T10:40:51;12.10;97.40
3705;DHT22;1868;48.918;9.438;2022-11-13T10:43:50;11.90;97.40
3705;DHT22;1868;48.918;9.438;2022-11-13T10:46:41;11.30;97.40
3705;DHT22;1868;48.918;9.438;2022-11-13T10:49:28;11.60;97.40
3705;DHT22;1868;48.918;9.438;2022-11-13T10:52:19;11.90;97.40
3705;DHT22;1868;48.918;9.438;2022-11-13T10:55:19;12.70;97.40
3705;DHT22;1868;48.918;9.438;2022-11-13T10:58:12;13.80;96.50
3705;DHT22;1868;48.918;9.438;2022-11-13T11:01:00;14.00;95.00
3705;DHT22;1868;48.918;9.438;2022-11-13T11:03:48;13.80;95.40
3705;DHT22;1868;48.918;9.438;2022-11-13T11:06:38;13.80;96.30
3705;DHT22;1868;48.918;9.438;2022-11-13T11:09:49;13.30;97.10
3705;DHT22;1868;48.918;9.438;2022-11-13T11:12:36;12.60;97.40
3705;DHT22;1868;48.918;9.438;2022-11-13T11:15:27;12.30;97.40
3705;DHT22;1868;48.918;9.438;2022-11-13T11:18:31;12.00;97.40
3705;DHT22;1868;48.918;9.438;2022-11-13T11:21:21;13.00;97.40
3705;DHT22;1868;48.918;9.438;2022-11-13T11:24:14;13.80;96.20
3705;DHT22;1868;48.918;9.438;2022-11-13T11:27:13;14.40;94.20
3705;DHT22;1868;48.918;9.438;2022-11-13T11:30:16;14.10;94.10
3705;DHT22;1868;48.918;9.438;2022-11-13T11:33:12;13.70;95.60
3705;DHT22;1868;48.918;9.438;2022-11-13T11:36:05;13.70;97.20
3705;DHT22;1868;48.918;9.438;2022-11-13T11:39:01;14.30;96.10
3705;DHT22;1868;48.918;9.438;2022-11-13T11:42:05;14.10;94.40
3705;DHT22;1868;48.918;9.438;2022-11-13T11:45:22;13.70;95.30
3705;DHT22;1868;48.918;9.438;2022-11-13T11:48:12;13.60;96.00
3705;DHT22;1868;48.918;9.438;2022-11-13T11:51:05;14.00;95.70
3705;DHT22;1868;48.918;9.438;2022-11-13T11:54:02;14.10;95.70
3705;DHT22;1868;48.918;9.438;2022-11-13T11:56:58;14.90;94.00
3705;DHT22;1868;48.918;9.438;2022-11-13T12:00:01;16.00;91.70
3705;DHT22;1868;48.918;9.438;2022-11-13T12:06:20;17.00;89.00
3705;DHT22;1868;48.918;9.438;2022-11-13T12:09:21;17.60;83.60
3705;DHT22;1868;48.918;9.438;2022-11-13T12:12:17;17.60;84.30
3705;DHT22;1868;48.918;9.438;2022-11-13T12:15:16;17.50;81.00
3705;DHT22;1868;48.918;9.438;2022-11-13T12:18:12;18.00;83.20
3705;DHT22;1868;48.918;9.438;2022-11-13T12:21:07;18.40;79.10
3705;DHT22;1868;48.918;9.438;2022-11-13T12:24:31;18.30;80.40
3705;DHT22;1868;48.918;9.438;2022-11-13T12:27:30;18.70;76.90
3705;DHT22;1868;48.918;9.438;2022-11-13T12:30:24;18.60;76.90
3705;DHT22;1868;48.918;9.438;2022-11-13T12:33:22;18.50;77.30
3705;DHT22;1868;48.918;9.438;2022-11-13T12:36:12;18.20;78.60
3705;DHT22;1868;48.918;9.438;2022-11-13T12:39:04;18.40;78.20
3705;DHT22;1868;48.918;9.438;2022-11-13T12:42:15;18.80;77.80
3705;DHT22;1868;48.918;9.438;2022-11-13T12:45:11;18.70;75.90
3705;DHT22;1868;48.918;9.438;2022-11-13T12:48:08;19.00;78.90
3705;DHT22;1868;48.918;9.438;2022-11-13T12:50:57;19.40;75.00
3705;DHT22;1868;48.918;9.438;2022-11-13T12:53:48;19.10;76.70
3705;DHT22;1868;48.918;9.438;2022-11-13T12:56:36;19.10;78.00
3705;DHT22;1868;48.918;9.438;2022-11-13T12:59:31;19.40;75.90
3705;DHT22;1868;48.918;9.438;2022-11-13T13:02:48;19.40;77.80
3705;DHT22;1868;48.918;9.438;2022-11-13T13:09:17;19.50;77.80
3705;DHT22;1868;48.918;9.438;2022-11-13T13:12:16;19.30;77.30
3705;DHT22;1868;48.918;9.438;2022-11-13T13:15:34;18.60;78.40
3705;DHT22;1868;48.918;9.438;2022-11-13T13:18:28;17.30;83.80
3705;DHT22;1868;48.918;9.438;2022-11-13T13:21:19;16.80;86.90
3705;DHT22;1868;48.918;9.438;2022-11-13T13:24:07;15.90;90.40
3705;DHT22;1868;48.918;9.438;2022-11-13T13:27:20;15.40;92.30
3705;DHT22;1868;48.918;9.438;2022-11-13T13:30:15;14.50;94.90
3705;DHT22;1868;48.918;9.438;2022-11-13T13:33:15;13.90;97.20
3705;DHT22;1868;48.918;9.438;2022-11-13T13:36:14;13.20;97.40
3705;DHT22;1868;48.918;9.438;2022-11-13T13:39:23;13.10;97.40
3705;DHT22;1868;48.918;9.438;2022-11-13T13:42:24;12.90;97.40
3705;DHT22;1868;48.918;9.438;2022-11-13T13:45:24;12.50;97.40
3705;DHT22;1868;48.918;9.438;2022-11-13T13:48:18;12.20;97.40
3705;DHT22;1868;48.918;9.438;2022-11-13T13:51:15;12.10;97.40
3705;DHT22;1868;48.918;9.438;2022-11-13T13:54:07;11.90;97.40
3705;DHT22;1868;48.918;9.438;2022-11-13T13:56:56;11.90;97.40
3705;DHT22;1868;48.918;9.438;2022-11-13T13:59:43;11.90;97.40
3705;DHT22;1868;48.918;9.438;2022-11-13T14:02:29;11.80;97.40
3705;DHT22;1868;48.918;9.438;2022-11-13T14:05:24;11.60;97.40
3705;DHT22;1868;48.918;9.438;2022-11-13T14:08:17;11.50;97.40
3705;DHT22;1868;48.918;9.438;2022-11-13T14:11:17;11.50;97.40
3705;DHT22;1868;48.918;9.438;2022-11-13T14:14:07;11.40;97.40
3705;DHT22;1868;48.918;9.438;2022-11-13T14:16:55;11.30;97.40
3705;DHT22;1868;48.918;9.438;2022-11-13T14:19:48;11.20;97.40
3705;DHT22;1868;48.918;9.438;2022-11-13T14:22:35;11.20;97.40
3705;DHT22;1868;48.918;9.438;2022-11-13T14:25:24;11.10;97.40
3705;DHT22;1868;48.918;9.438;2022-11-13T14:28:15;11.10;97.40
3705;DHT22;1868;48.918;9.438;2022-11-13T14:31:05;10.90;97.40
3705;DHT22;1868;48.918;9.438;2022-11-13T14:33:53;10.80;97.40
3705;DHT22;1868;48.918;9.438;2022-11-13T14:36:40;10.80;97.40
3705;DHT22;1868;48.918;9.438;2022-11-13T14:39:30;10.80;97.40
3705;DHT22;1868;48.918;9.438;2022-11-13T14:42:20;10.70;97.40
3705;DHT22;1868;48.918;9.438;2022-11-13T14:45:19;10.60;97.40
3705;DHT22;1868;48.918;9.438;2022-11-13T14:48:18;10.50;97.40
3705;DHT22;1868;48.918;9.438;2022-11-13T14:51:21;10.50;97.40
3705;DHT22;1868;48.918;9.438;2022-11-13T14:54:28;10.50;97.40
3705;DHT22;1868;48.918;9.438;2022-11-13T14:57:46;10.40;97.40
3705;DHT22;1868;48.918;9.438;2022-11-13T15:00:36;10.30;97.40
3705;DHT22;1868;48.918;9.438;2022-11-13T15:03:24;10.20;97.40
3705;DHT22;1868;48.918;9.438;2022-11-13T15:06:14;10.10;97.40
3705;DHT22;1868;48.918;9.438;2022-11-13T15:09:02;10.10;97.40
3705;DHT22;1868;48.918;9.438;2022-11-13T15:11:50;10.00;97.40
3705;DHT22;1868;48.918;9.438;2022-11-13T15:14:38;10.00;97.40
3705;DHT22;1868;48.918;9.438;2022-11-13T15:17:27;9.90;97.40
3705;DHT22;1868;48.918;9.438;2022-11-13T15:20:15;9.80;97.40
3705;DHT22;1868;48.918;9.438;2022-11-13T15:23:03;9.70;97.40
3705;DHT22;1868;48.918;9.438;2022-11-13T15:25:49;9.70;97.40
3705;DHT22;1868;48.918;9.438;2022-11-13T15:28:36;9.60;97.40
3705;DHT22;1868;48.918;9.438;2022-11-13T15:31:28;9.50;97.40
3705;DHT22;1868;48.918;9.438;2022-11-13T15:34:16;9.40;97.40
3705;DHT22;1868;48.918;9.438;2022-11-13T15:37:09;9.30;97.40
3705;DHT22;1868;48.918;9.438;2022-11-13T15:39:57;9.20;97.40
3705;DHT22;1868;48.918;9.438;2022-11-13T15:42:44;9.10;97.40
3705;DHT22;1868;48.918;9.438;2022-11-13T15:45:31;8.90;97.40
3705;DHT22;1868;48.918;9.438;2022-11-13T15:48:18;8.80;97.40
3705;DHT22;1868;48.918;9.438;2022-11-13T15:51:14;8.60;97.40
3705;DHT22;1868;48.918;9.438;2022-11-13T15:54:09;8.50;97.40
3705;DHT22;1868;48.918;9.438;2022-11-13T15:56:59;8.40;97.40
3705;DHT22;1868;48.918;9.438;2022-11-13T15:59:46;8.30;97.40
3705;DHT22;1868;48.918;9.438;2022-11-13T16:02:33;8.20;97.40
3705;DHT22;1868;48.918;9.438;2022-11-13T16:05:20;8.20;97.40
3705;DHT22;1868;48.918;9.438;2022-11-13T16:08:12;8.10;97.40
3705;DHT22;1868;48.918;9.438;2022-11-13T16:11:01;8.00;97.40
3705;DHT22;1868;48.918;9.438;2022-11-13T16:13:47;7.80;97.40
3705;DHT22;1868;48.918;9.438;2022-11-13T16:16:36;7.70;97.40
3705;DHT22;1868;48.918;9.438;2022-11-13T16:19:25;7.60;97.40
3705;DHT22;1868;48.918;9.438;2022-11-13T16:22:19;7.40;97.40
3705;DHT22;1868;48.918;9.438;2022-11-13T16:25:10;7.30;97.40
3705;DHT22;1868;48.918;9.438;2022-11-13T16:27:58;7.20;97.40
3705;DHT22;1868;48.918;9.438;2022-11-13T16:30:45;7.20;97.40
3705;DHT22;1868;48.918;9.438;2022-11-13T16:33:32;7.10;97.40
3705;DHT22;1868;48.918;9.438;2022-11-13T16:36:20;7.00;97.40
3705;DHT22;1868;48.918;9.438;2022-11-13T16:39:10;7.00;97.40
3705;DHT22;1868;48.918;9.438;2022-11-13T16:42:01;6.90;97.40
3705;DHT22;1868;48.918;9.438;2022-11-13T16:44:48;6.80;97.40
3705;DHT22;1868;48.918;9.438;2022-11-13T16:47:35;6.70;97.40
3705;DHT22;1868;48.918;9.438;2022-11-13T16:50:23;6.60;97.40
3705;DHT22;1868;48.918;9.438;2022-11-13T16:53:12;6.50;97.40
3705;DHT22;1868;48.918;9.438;2022-11-13T16:55:59;6.40;97.40
3705;DHT22;1868;48.918;9.438;2022-11-13T16:58:48;6.30;97.40
3705;DHT22;1868;48.918;9.438;2022-11-13T17:01:35;6.20;97.40
3705;DHT22;1868;48.918;9.438;2022-11-13T17:04:21;6.20;97.40
3705;DHT22;1868;48.918;9.438;2022-11-13T17:07:11;6.10;97.40
3705;DHT22;1868;48.918;9.438;2022-11-13T17:09:58;6.00;97.40
3705;DHT22;1868;48.918;9.438;2022-11-13T17:13:05;5.90;97.40
3705;DHT22;1868;48.918;9.438;2022-11-13T17:15:53;5.90;97.40
3705;DHT22;1868;48.918;9.438;2022-11-13T17:18:40;5.80;97.40
3705;DHT22;1868;48.918;9.438;2022-11-13T17:21:27;5.80;97.40
3705;DHT22;1868;48.918;9.438;2022-11-13T17:24:15;5.80;97.40
3705;DHT22;1868;48.918;9.438;2022-11-13T17:27:02;5.70;97.40
3705;DHT22;1868;48.918;9.438;2022-11-13T17:29:49;5.70;97.40
3705;DHT22;1868;48.918;9.438;2022-11-13T17:32:37;5.60;97.40
3705;DHT22;1868;48.918;9.438;2022-11-13T17:35:23;5.60;97.40
3705;DHT22;1868;48.918;9.438;2022-11-13T17:38:12;5.50;97.40
3705;DHT22;1868;48.918;9.438;2022-11-13T17:41:03;5.40;97.40
3705;DHT22;1868;48.918;9.438;2022-11-13T17:43:50;5.40;97.40
3705;DHT22;1868;48.918;9.438;2022-11-13T17:46:46;5.30;97.40
3705;DHT22;1868;48.918;9.438;2022-11-13T17:49:34;5.20;97.40
3705;DHT22;1868;48.918;9.438;2022-11-13T17:52:20;5.10;97.40
3705;DHT22;1868;48.918;9.438;2022-11-13T17:55:07;5.10;97.40
3705;DHT22;1868;48.918;9.438;2022-11-13T17:57:59;5.00;97.40
3705;DHT22;1868;48.918;9.438;2022-11-13T18:00:46;5.00;97.40
3705;DHT22;1868;48.918;9.438;2022-11-13T18:03:33;4.90;97.40
3705;DHT22;1868;48.918;9.438;2022-11-13T18:06:23;4.90;97.40
3705;DHT22;1868;48.918;9.438;2022-11-13T18:09:10;4.80;97.40
3705;DHT22;1868;48.918;9.438;2022-11-13T18:11:57;4.80;97.40
3705;DHT22;1868;48.918;9.438;2022-11-13T18:14:43;4.70;97.40
3705;DHT22;1868;48.918;9.438;2022-11-13T18:17:36;4.70;97.40
3705;DHT22;1868;48.918;9.438;2022-11-13T18:20:22;4.60;97.40
3705;DHT22;1868;48.918;9.438;2022-11-13T18:23:10;4.60;97.40
3705;DHT22;1868;48.918;9.438;2022-11-13T18:26:05;4.60;97.40
3705;DHT22;1868;48.918;9.438;2022-11-13T18:28:53;4.50;97.40
3705;DHT22;1868;48.918;9.438;2022-11-13T18:31:40;4.50;97.40
3705;DHT22;1868;48.918;9.438;2022-11-13T18:34:27;4.40;97.40
3705;DHT22;1868;48.918;9.438;2022-11-13T18:37:14;4.40;97.40
3705;DHT22;1868;48.918;9.438;2022-11-13T18:40:02;4.40;97.40
3705;DHT22;1868;48.918;9.438;2022-11-13T18:42:49;4.30;97.40
3705;DHT22;1868;48.918;9.438;2022-11-13T18:45:36;4.30;97.40
3705;DHT22;1868;48.918;9.438;2022-11-13T18:48:23;4.30;97.40
3705;DHT22;1868;48.918;9.438;2022-11-13T18:51:12;4.30;97.40
3705;DHT22;1868;48.918;9.438;2022-11-13T18:54:00;4.30;97.40
3705;DHT22;1868;48.918;9.438;2022-11-13T18:56:55;4.20;97.40